x

West Sea Otter (46204) Wave Buoy

3:00am - Thu 3rd Sep 2015 All times are PDT. -7 hours from GMT.

  • Sig Wave height 6.2ft
  • Peak Period 10s
  • Wind
    7mph, 9mph gusts
  • Sea Temp 57°f
  • Air Temp 54°f
  • Sea Pressure 1013.6mb
  • West Sea Otter
  • West Sea Otter

More Historic Weather Station data

Upgrade to MSW Pro to gain access to the past 30 days of data for over 8000 Wavebouys and Weather Stations around the globe.

Join Pro

Comparision Forecast

View Surf forecast
   
Thu 09/03 3:00am 6ft 10s 7 9 mph 1013.6mb 57f 54f
2:00am 6.5ft 9s 7 9 mph 1013.3mb 57f 54f
1:00am 7ft 9s 4 7 mph 1013.3mb 57f 54f
12:00am 6ft 10s 4 7 mph 1013.2mb 57f 54f
Wed 09/02 11:00pm 7ft 9s 4 7 mph 1013.1mb 57f 54f
10:00pm 6ft 10s 4 7 mph 1013mb 58f 54f
9:00pm 7ft 11s 7 9 mph 1012.6mb 58f 54f
8:00pm 6.5ft 10s 7 9 mph 1012.1mb 59f 54f
7:00pm 7ft 10s 9 11 mph 1011.6mb 58f 54f
6:00pm 6ft 11s 9 11 mph 1011.3mb 59f 54f
5:00pm 7ft 10s 7 9 mph 1010.8mb 59f 53f
4:00pm 7ft 11s 11 13 mph 1010.6mb 59f 53f
3:00pm 8ft 9s 11 13 mph 1010.1mb 58f 54f
2:00pm 8ft 10s 7 9 mph 1009.6mb 58f 54f
1:00pm 8.5ft 11s 7 9 mph 1009.3mb 58f 53f
12:00pm 9ft 11s 7 11 mph 1009mb 58f 52f
11:00am 9ft 8s 9 13 mph 1008.4mb 58f 52f
10:00am 8ft 12s 13 16 mph 1007.8mb 58f 52f
9:00am 7.5ft 10s 11 13 mph 1007mb 58f 53f
8:00am 8.5ft 9s 16 18 mph 1006.5mb 59f 53f
7:00am 7.5ft 10s 13 16 mph 1005.6mb 58f 53f
6:00am 8ft 10s 13 18 mph 1004.8mb 58f 53f
5:00am 8.5ft 11s 13 16 mph 1004mb 58f 54f
4:00am 9.5ft 12s 13 18 mph 1003.5mb 58f 53f
3:00am 9ft 11s 13 18 mph 1003mb 59f 55f
2:00am 10ft 10s 11 16 mph 1002.8mb 59f 53f
1:00am 11ft 11s 11 18 mph 1002.3mb 59f 55f
12:00am 11ft 11s 16 20 mph 1001.9mb 59f 54f
Tue 09/01 11:00pm 11ft 11s 18 20 mph 1001.3mb 59f 54f
10:00pm 9ft 11s 18 22 mph 1000.7mb 59f 54f
9:00pm 9ft 11s 9 20 mph 1000.8mb 59f 53f
8:00pm 9ft 12s 18 20 mph 1000.6mb 59f 54f
7:00pm 9ft 9s 18 20 mph 1000.9mb 59f 54f
6:00pm 8.5ft 11s 20 25 mph 1001mb 59f 57f
5:00pm 9ft 11s 18 25 mph 1001.3mb 58f 55f
4:00pm 9.5ft 8s 18 25 mph 1001.6mb 59f 56f
3:00pm 10ft 8s 16 22 mph 1002mb 59f 56f
2:00pm 11ft 8s 13 20 mph 1001.9mb 60f 57f
1:00pm  -   -  13
mph
1001.9mb 60f 57f
12:00pm 11ft 8s 16 22 mph 1001.4mb 60f 57f
11:00am 9ft 8s 20 25 mph 1001.2mb 60f 56f
10:00am 8ft 11s 20 27 mph 1000.8mb 60f 54f
9:00am 8ft 11s 16 20 mph 1001.8mb 60f 53f
8:00am 8ft 12s 20 27 mph 1001.7mb 60f 56f
7:00am 7.5ft 12s 22 27 mph 1002mb 59f 57f
6:00am 7ft 11s 20 27 mph 1002.6mb 59f 57f
5:00am 7ft 12s 20 25 mph 1003.6mb 58f 56f
4:00am 7ft 11s 18 20 mph 1003.9mb 58f 58f
3:00am 7ft 13s 18 22 mph 1004.4mb 58f 58f
2:00am 8ft 10s 16 20 mph 1004.8mb 58f 57f
1:00am 9.5ft 10s 18 22 mph 1004.7mb 60f 57f
12:00am 10ft 11s 18 22 mph 1005mb 60f 57f
Mon 08/31 11:00pm 9.5ft 11s 16 18 mph 1005.4mb 60f 58f
10:00pm 9.5ft 12s 16 20 mph 1005.5mb 60f 58f
9:00pm 10ft 11s 16 20 mph 1005.3mb 60f 58f
8:00pm 9ft 11s 11 13 mph 1005.1mb 60f 58f
7:00pm 8.5ft 11s 9 13 mph 1005.3mb 60f 57f
6:00pm 7.5ft 11s 16 20 mph 1005mb 60f 59f
5:00pm 7ft 12s 9 13 mph 1005.1mb 60f 59f
4:00pm 7.5ft 12s 11 13 mph 1005.2mb 60f 58f
3:00pm 7.5ft 11s 13 16 mph 1005.5mb 60f 60f
2:00pm 7.5ft 10s 11 13 mph 1005.7mb 60f 60f
1:00pm 8.5ft 10s 9 11 mph 1006.4mb 60f 60f
12:00pm 10ft 10s 11 16 mph 1006.6mb 60f 59f
11:00am 10ft 10s 11 13 mph 1006.6mb 60f 59f
10:00am 10ft 9s 9 11 mph 1006.7mb 60f 60f
9:00am 9ft 10s 9 11 mph 1006.7mb 60f 59f
8:00am 9ft 10s 13 22 mph 1006.9mb 60f 57f
7:00am 9ft 10s 9 11 mph 1006.4mb 60f 59f
6:00am 8.5ft 8s 13 16 mph 1005.7mb 60f 60f
5:00am 8ft 9s 13 18 mph 1005.7mb 60f 58f
4:00am 8ft 10s 9 13 mph 1005.4mb 60f 59f
3:00am 8ft 10s 9 11 mph 1005.2mb 60f 59f
2:00am 9ft 9s 16 22 mph 1004.8mb 60f 60f
1:00am 8ft 8s 7 9 mph 1004.4mb 60f 60f
12:00am 9ft 9s 13 18 mph 1004mb 60f 60f
Sun 08/30 11:00pm 10ft 8s 13 16 mph 1003.6mb 60f 60f
10:00pm 9ft 8s 16 20 mph 1002.9mb 60f 60f
9:00pm 8.5ft 8s 13 16 mph 1002.2mb 60f 60f
8:00pm 9ft 8s 16 18 mph 1001.3mb 60f 60f
7:00pm 9.5ft 7s 20 22 mph 1000.5mb 60f 59f
6:00pm 10.5ft 8s 20 25 mph 999.9mb 60f 59f
5:00pm 12ft 7s 25 31 mph 999.5mb 59f 59f
4:00pm 10ft 7s 34 43 mph 999.3mb 60f 57f
3:00pm 9ft 10s 36 43 mph 999.8mb 60f 57f
2:00pm 8ft 10s 31 40 mph 1000.8mb 60f 58f
1:00pm 7.5ft 16s 27 31 mph 1001.5mb 60f 59f
12:00pm 8ft 10s 25 27 mph 1002.1mb 60f 59f